Time;durP1;ratioP1;P1;durP2;ratioP2;P2;SDS_P1;SDS_P2;PMS_P1;PMS_P2;Temp;Humidity;BMP_temperature;BMP_pressure;BME280_temperature;BME280_humidity;BME280_pressure;Samples;Min_cycle;Max_cycle;Signal;HPM_P1;HPM_P2
2021/10/08 00:00:14;;;;;;;9.63;2.90;;;;;;;25.15;45.54;101782.13;4435301;32;20089;-70
2021/10/08 00:02:40;;;;;;;7.80;3.20;;;;;;;25.40;44.94;101777.53;4434712;32;20086;-70
2021/10/08 00:05:06;;;;;;;8.02;2.90;;;;;;;25.30;45.34;101774.09;4420226;32;20366;-70
2021/10/08 00:07:32;;;;;;;13.27;3.92;;;;;;;25.37;45.07;101788.03;4434113;32;20122;-70
2021/10/08 00:09:57;;;;;;;11.23;3.53;;;;;;;25.31;45.04;101798.72;4433646;32;20081;-70
2021/10/08 00:12:26;;;;;;;9.07;3.60;;;;;;;25.49;44.73;101794.62;4434501;32;20104;-70
2021/10/08 00:14:52;;;;;;;10.18;3.30;;;;;;;25.27;45.28;101791.59;4435235;32;20050;-70
2021/10/08 00:17:18;;;;;;;8.00;3.75;;;;;;;25.23;45.34;101788.97;4434459;32;20063;-70
2021/10/08 00:19:44;;;;;;;8.55;3.70;;;;;;;25.28;45.31;101784.56;4432816;32;20142;-70
2021/10/08 00:22:10;;;;;;;8.02;3.22;;;;;;;25.18;45.56;101786.06;4434620;32;20772;-70
2021/10/08 00:24:36;;;;;;;8.45;3.03;;;;;;;24.91;46.09;101789.56;4434826;32;20113;-70
2021/10/08 00:27:01;;;;;;;8.20;3.25;;;;;;;25.03;45.84;101789.13;4434819;32;20033;-71
2021/10/08 00:29:27;;;;;;;8.82;3.25;;;;;;;25.02;46.08;101784.66;4433819;32;20073;-71
2021/10/08 00:31:53;;;;;;;9.73;3.05;;;;;;;25.18;45.59;101783.97;4431435;32;20374;-71
2021/10/08 00:34:19;;;;;;;7.18;2.58;;;;;;;25.02;45.96;101792.50;4432471;32;20343;-71
2021/10/08 00:36:44;;;;;;;6.35;3.12;;;;;;;25.32;45.31;101788.78;4430811;32;20033;-71
2021/10/08 00:39:10;;;;;;;6.00;2.78;;;;;;;25.47;44.94;101790.69;4434721;32;20500;-71
2021/10/08 00:41:36;;;;;;;6.93;2.97;;;;;;;25.29;45.22;101789.00;4436069;32;20026;-71
2021/10/08 00:44:01;;;;;;;8.60;3.15;;;;;;;25.26;45.39;101796.59;4433456;32;20072;-71
2021/10/08 00:46:28;;;;;;;10.38;2.70;;;;;;;25.01;45.83;101794.59;4433365;32;20103;-71
2021/10/08 00:48:54;;;;;;;6.20;3.00;;;;;;;25.23;45.50;101796.81;4436616;32;20037;-71
2021/10/08 00:51:23;;;;;;;11.25;3.03;;;;;;;25.41;45.29;101801.41;4431718;32;20485;-71
2021/10/08 00:53:49;;;;;;;10.43;3.30;;;;;;;25.50;45.23;101801.19;4434356;32;20156;-71
2021/10/08 00:56:17;;;;;;;8.82;3.42;;;;;;;25.17;45.37;101805.44;4432075;32;20033;-71
2021/10/08 00:58:44;;;;;;;10.25;3.08;;;;;;;25.41;45.42;101802.19;4433305;32;20125;-71
2021/10/08 01:01:13;;;;;;;7.40;3.08;;;;;;;25.44;45.05;101797.50;4434605;32;20413;-71
2021/10/08 01:03:39;;;;;;;7.25;2.92;;;;;;;24.96;45.88;101798.25;4433544;32;20073;-71
2021/10/08 01:06:05;;;;;;;8.52;3.37;;;;;;;24.86;46.33;101802.63;4434007;32;20037;-71
2021/10/08 01:08:31;;;;;;;7.70;3.20;;;;;;;24.94;46.00;101803.72;4433633;32;20519;-71
2021/10/08 01:10:58;;;;;;;6.97;3.05;;;;;;;24.99;45.80;101802.97;4439428;32;20123;-71
2021/10/08 01:13:23;;;;;;;11.85;3.50;;;;;;;25.02;46.15;101806.91;4435325;32;20025;-71
2021/10/08 01:15:53;;;;;;;7.47;2.78;;;;;;;24.62;46.66;101795.59;4435039;32;20072;-71
2021/10/08 01:18:19;;;;;;;7.75;3.47;;;;;;;25.32;45.41;101800.31;4436268;32;20095;-71
2021/10/08 01:20:44;;;;;;;6.57;2.85;;;;;;;25.09;45.52;101804.34;4435289;32;20418;-71
2021/10/08 01:23:10;;;;;;;6.90;3.25;;;;;;;25.14;45.58;101803.59;4434557;32;20151;-71
2021/10/08 01:25:36;;;;;;;7.47;2.40;;;;;;;25.23;45.29;101803.37;4433898;32;20033;-71
2021/10/08 01:28:05;;;;;;;8.60;3.10;;;;;;;25.39;44.82;101813.44;4436800;32;20409;-71
2021/10/08 01:30:31;;;;;;;6.53;2.78;;;;;;;25.50;44.93;101807.75;4436112;32;20514;-71
2021/10/08 01:32:57;;;;;;;7.37;2.97;;;;;;;25.68;44.40;101801.50;4433878;32;20355;-71
2021/10/08 01:35:23;;;;;;;6.35;2.90;;;;;;;25.48;44.46;101803.78;4432724;32;20073;-71
2021/10/08 01:37:49;;;;;;;6.18;2.62;;;;;;;25.43;44.77;101808.22;4433572;32;20088;-71
2021/10/08 01:40:16;;;;;;;6.75;2.80;;;;;;;25.59;44.35;101801.75;4433376;32;20597;-71
2021/10/08 01:42:42;;;;;;;8.95;3.10;;;;;;;25.73;44.12;101808.59;4434529;32;20071;-71
2021/10/08 01:45:11;;;;;;;9.93;2.90;;;;;;;25.62;44.21;101812.25;4431580;32;20944;-71
2021/10/08 01:47:37;;;;;;;6.43;2.90;;;;;;;25.89;43.74;101807.91;4433672;32;20155;-71
2021/10/08 01:50:04;;;;;;;10.23;3.40;;;;;;;25.73;43.77;101808.59;4433783;32;20526;-71
2021/10/08 01:52:29;;;;;;;8.25;2.60;;;;;;;26.11;43.20;101814.50;4433192;32;20096;-71
2021/10/08 01:54:55;;;;;;;8.10;2.92;;;;;;;26.17;42.96;101818.19;4433259;32;20072;-71
2021/10/08 01:57:21;;;;;;;6.30;2.90;;;;;;;26.19;42.82;101827.13;4434268;32;20056;-71
2021/10/08 01:59:46;;;;;;;8.27;2.80;;;;;;;26.11;43.00;101822.41;4435536;32;20067;-71
2021/10/08 02:02:12;;;;;;;7.80;2.75;;;;;;;26.13;43.00;101819.75;4438565;32;20419;-71
2021/10/08 02:04:38;;;;;;;9.10;3.40;;;;;;;25.97;43.31;101820.47;4435766;32;20041;-71
2021/10/08 02:07:03;;;;;;;9.75;3.47;;;;;;;25.79;43.68;101818.06;4433626;32;20059;-70
2021/10/08 02:09:29;;;;;;;8.68;3.08;;;;;;;26.02;43.25;101816.87;4437084;32;20109;-71
2021/10/08 02:11:55;;;;;;;8.82;3.40;;;;;;;25.76;43.74;101819.09;4435549;32;20114;-71
2021/10/08 02:14:20;;;;;;;9.50;2.97;;;;;;;25.75;43.92;101815.44;4436786;32;20081;-70
2021/10/08 02:16:46;;;;;;;7.93;3.25;;;;;;;25.71;43.95;101820.66;4436148;32;20086;-70
2021/10/08 02:19:12;;;;;;;8.18;3.47;;;;;;;25.62;44.20;101817.22;4437450;32;20634;-70
2021/10/08 02:21:37;;;;;;;9.77;3.85;;;;;;;25.44;44.59;101812.69;4434042;32;20025;-70
2021/10/08 02:24:03;;;;;;;9.25;4.05;;;;;;;25.52;44.43;101822.41;4436108;32;20100;-70
2021/10/08 02:26:29;;;;;;;9.77;3.50;;;;;;;25.56;44.49;101822.19;4435520;32;20121;-71
2021/10/08 02:28:55;;;;;;;8.35;3.55;;;;;;;25.29;45.12;101812.84;4438188;32;20379;-71
2021/10/08 02:31:20;;;;;;;8.65;3.55;;;;;;;25.28;45.07;101819.91;4434538;32;20092;-70
2021/10/08 02:33:46;;;;;;;9.55;4.00;;;;;;;25.27;45.25;101820.41;4435079;32;20066;-71
2021/10/08 02:36:12;;;;;;;12.55;4.37;;;;;;;25.41;44.87;101816.63;4434198;32;20591;-71
2021/10/08 02:38:39;;;;;;;7.40;4.18;;;;;;;25.29;45.09;101823.59;4434733;32;20069;-70
2021/10/08 02:41:06;;;;;;;8.93;4.07;;;;;;;25.28;45.32;101813.37;4436772;32;21543;-71
2021/10/08 02:43:32;;;;;;;6.50;3.83;;;;;;;25.43;45.05;101811.09;4434777;32;20022;-70
2021/10/08 02:45:58;;;;;;;11.48;5.35;;;;;;;25.29;45.38;101815.75;4433667;32;20037;-71
2021/10/08 02:48:24;;;;;;;9.07;4.60;;;;;;;24.88;46.04;101817.28;4434415;32;20149;-70
2021/10/08 02:50:50;;;;;;;7.50;4.62;;;;;;;25.17;45.59;101816.19;4437831;32;20116;-71
2021/10/08 02:53:16;;;;;;;12.23;4.90;;;;;;;25.05;45.71;101805.88;4433478;32;20041;-71
2021/10/08 02:55:42;;;;;;;13.05;5.20;;;;;;;25.21;45.40;101817.50;4436456;32;20081;-71
2021/10/08 02:58:09;;;;;;;11.82;5.37;;;;;;;25.04;45.71;101807.97;4435189;32;20026;-70
2021/10/08 03:00:35;;;;;;;8.88;4.90;;;;;;;24.80;46.31;101813.31;4434601;32;20173;-70
2021/10/08 03:03:01;;;;;;;13.52;6.28;;;;;;;25.01;45.85;101813.97;4434779;32;20437;-70
2021/10/08 03:05:26;;;;;;;17.12;7.05;;;;;;;24.58;46.98;101807.31;4434229;32;20093;-70
2021/10/08 03:07:52;;;;;;;10.20;6.53;;;;;;;24.29;47.50;101821.97;4434405;32;20488;-70
2021/10/08 03:10:19;;;;;;;16.40;7.65;;;;;;;24.72;46.59;101817.16;4435711;32;20416;-70
2021/10/08 03:12:46;;;;;;;13.88;6.87;;;;;;;24.51;47.13;101807.03;4435387;32;20059;-70
2021/10/08 03:15:13;;;;;;;12.30;7.12;;;;;;;24.39;47.57;101805.34;4432492;32;20089;-70
2021/10/08 03:17:39;;;;;;;13.98;6.57;;;;;;;24.43;47.33;101806.69;4436216;32;20073;-70
2021/10/08 03:20:06;;;;;;;11.70;6.90;;;;;;;24.56;47.00;101807.06;4436509;32;20455;-70
2021/10/08 03:22:32;;;;;;;11.63;6.62;;;;;;;24.63;47.00;101811.56;4434789;32;20100;-70
2021/10/08 03:24:57;;;;;;;11.50;6.78;;;;;;;24.42;47.29;101807.97;4435127;32;20442;-70
2021/10/08 03:27:23;;;;;;;12.02;6.18;;;;;;;24.66;46.90;101811.38;4434190;32;20102;-70
2021/10/08 03:29:49;;;;;;;9.95;6.32;;;;;;;24.83;46.52;101809.41;4433611;32;20093;-70
2021/10/08 03:32:15;;;;;;;9.35;5.97;;;;;;;24.85;46.22;101812.56;4435401;32;20081;-70
2021/10/08 03:34:40;;;;;;;9.48;6.50;;;;;;;25.01;46.05;101822.63;4436478;32;20077;-70
2021/10/08 03:37:10;;;;;;;11.48;6.62;;;;;;;25.29;45.42;101830.16;4437431;32;20045;-70
2021/10/08 03:39:39;;;;;;;10.10;6.65;;;;;;;25.44;45.15;101821.34;4437550;32;20073;-70
2021/10/08 03:42:05;;;;;;;12.63;6.07;;;;;;;25.47;45.04;101828.97;4436244;32;20072;-70
2021/10/08 03:44:37;;;;;;;10.07;6.43;;;;;;;25.31;45.15;101827.56;4432846;32;20059;-70
2021/10/08 03:47:13;;;;;;;11.55;6.50;;;;;;;25.47;44.80;101836.81;4436965;32;20081;-70
2021/10/08 03:49:40;;;;;;;11.18;5.93;;;;;;;25.18;45.21;101827.19;4433719;32;20178;-70
2021/10/08 03:52:06;;;;;;;9.70;5.75;;;;;;;25.11;45.00;101824.78;4433368;32;20100;-70
2021/10/08 03:54:32;;;;;;;12.52;6.07;;;;;;;24.77;45.59;101833.69;4434344;32;20382;-70
2021/10/08 03:56:58;;;;;;;10.30;6.43;;;;;;;24.99;45.33;101830.97;4435430;32;20033;-70
2021/10/08 03:59:23;;;;;;;14.02;6.68;;;;;;;24.71;46.11;101844.38;4435423;32;20143;-70
2021/10/08 04:01:49;;;;;;;9.73;6.75;;;;;;;24.85;45.77;101841.34;4436560;32;20582;-70
2021/10/08 04:04:15;;;;;;;12.05;7.05;;;;;;;24.58;46.14;101833.22;4436344;32;20073;-70
2021/10/08 04:06:41;;;;;;;12.65;6.62;;;;;;;24.44;46.45;101842.81;4432914;32;20092;-70
2021/10/08 04:09:08;;;;;;;11.07;6.57;;;;;;;24.28;46.94;101839.75;4434478;32;20076;-70
2021/10/08 04:11:34;;;;;;;15.27;6.85;;;;;;;24.46;47.05;101845.16;4433627;32;20081;-70
2021/10/08 04:14:00;;;;;;;14.25;7.68;;;;;;;24.47;46.74;101850.41;4434390;32;20137;-70
2021/10/08 04:16:25;;;;;;;13.52;7.97;;;;;;;24.35;47.20;101850.81;4436020;32;20093;-70
2021/10/08 04:18:51;;;;;;;12.63;7.03;;;;;;;24.34;47.35;101850.03;4435355;32;20030;-70
2021/10/08 04:21:17;;;;;;;13.38;7.95;;;;;;;24.90;46.11;101852.12;4435996;32;20092;-70
2021/10/08 04:23:45;;;;;;;15.00;7.78;;;;;;;24.64;46.73;101844.81;4431731;32;20069;-70
2021/10/08 04:26:11;;;;;;;13.57;7.37;;;;;;;24.77;46.31;101856.72;4433083;32;20514;-70
2021/10/08 04:28:37;;;;;;;12.52;6.97;;;;;;;25.07;45.86;101860.91;4435359;32;20094;-70
2021/10/08 04:31:04;;;;;;;12.25;7.28;;;;;;;25.13;45.26;101864.63;4437270;32;20077;-70
2021/10/08 04:33:30;;;;;;;11.07;6.82;;;;;;;25.11;45.56;101859.38;4433755;32;20493;-70
2021/10/08 04:35:59;;;;;;;14.80;7.10;;;;;;;25.04;45.62;101856.94;4435381;32;20067;-70
2021/10/08 04:38:26;;;;;;;13.77;6.97;;;;;;;24.98;45.71;101861.09;4435942;32;20073;-70
2021/10/08 04:40:52;;;;;;;13.32;7.30;;;;;;;25.24;45.13;101865.47;4435695;32;20073;-70
2021/10/08 04:43:18;;;;;;;14.75;6.68;;;;;;;25.29;44.87;101863.94;4436496;32;20135;-70
2021/10/08 04:45:44;;;;;;;13.30;6.80;;;;;;;25.35;44.64;101868.44;4419133;32;20084;-70
2021/10/08 04:48:12;;;;;;;11.30;6.28;;;;;;;25.38;44.53;101870.28;4433670;32;20425;-70
2021/10/08 04:50:37;;;;;;;11.00;6.85;;;;;;;25.37;44.48;101867.16;4433066;32;20079;-69
2021/10/08 04:53:24;;;;;;;11.40;6.80;;;;;;;25.39;44.47;101868.19;4431143;32;20080;-69
2021/10/08 04:55:50;;;;;;;9.88;6.15;;;;;;;25.51;43.97;101875.62;4434912;32;20077;-70
2021/10/08 04:58:16;;;;;;;13.50;6.60;;;;;;;25.38;44.39;101872.41;4432693;32;20038;-69
2021/10/08 05:00:42;;;;;;;11.98;6.60;;;;;;;25.25;44.50;101869.16;4433675;32;20095;-69
2021/10/08 05:03:11;;;;;;;12.20;6.37;;;;;;;25.16;44.81;101872.22;4433092;32;20028;-70
2021/10/08 05:05:37;;;;;;;12.82;6.80;;;;;;;25.26;44.29;101865.75;4435311;32;20041;-69
2021/10/08 05:08:04;;;;;;;11.20;5.85;;;;;;;25.03;44.44;101871.84;4434243;32;20038;-69
2021/10/08 05:10:31;;;;;;;9.73;5.55;;;;;;;24.95;44.50;101879.41;4433592;32;20077;-70
2021/10/08 05:12:58;;;;;;;9.80;5.47;;;;;;;24.99;44.50;101874.97;4432434;32;20097;-70
2021/10/08 05:15:24;;;;;;;13.02;6.68;;;;;;;25.04;44.50;101874.22;4435263;32;20048;-70
2021/10/08 05:17:49;;;;;;;10.57;4.90;;;;;;;24.97;44.41;101886.22;4433573;32;20517;-69
2021/10/08 05:20:15;;;;;;;7.25;4.60;;;;;;;24.70;44.60;101891.75;4435482;32;20406;-69
2021/10/08 05:22:41;;;;;;;10.18;5.40;;;;;;;24.77;44.49;101892.09;4434379;32;20067;-69
2021/10/08 05:25:07;;;;;;;7.82;5.37;;;;;;;24.78;44.45;101896.53;4433922;32;20136;-69
2021/10/08 05:27:33;;;;;;;13.55;5.68;;;;;;;24.50;45.17;101886.00;4418173;32;20075;-69
2021/10/08 05:29:58;;;;;;;11.52;6.10;;;;;;;24.46;45.10;101889.12;4430475;32;20406;-69
2021/10/08 05:32:24;;;;;;;10.18;5.35;;;;;;;24.25;45.62;101895.44;4434022;32;20094;-69
2021/10/08 05:34:50;;;;;;;9.88;5.37;;;;;;;24.39;45.25;101889.56;4435976;32;20073;-69
2021/10/08 05:37:15;;;;;;;12.07;5.53;;;;;;;24.52;44.87;101887.09;4438324;32;20338;-69
2021/10/08 05:39:41;;;;;;;12.63;5.93;;;;;;;24.55;44.91;101891.03;4435252;32;20070;-69
2021/10/08 05:42:07;;;;;;;9.52;5.68;;;;;;;24.66;44.68;101894.84;4436635;32;20037;-69
2021/10/08 05:44:33;;;;;;;9.25;5.45;;;;;;;24.64;44.57;101899.50;4435989;32;20061;-69
2021/10/08 05:46:59;;;;;;;9.32;4.87;;;;;;;24.27;45.07;101899.38;4433269;32;20073;-69
2021/10/08 05:49:24;;;;;;;11.30;6.25;;;;;;;24.11;45.76;101902.84;4438772;32;20404;-69
2021/10/08 05:51:50;;;;;;;9.88;6.22;;;;;;;24.01;45.91;101898.56;4436488;32;20075;-69
2021/10/08 05:54:16;;;;;;;11.95;6.00;;;;;;;23.99;46.07;101909.00;4437060;32;20057;-69
2021/10/08 05:56:41;;;;;;;13.88;7.55;;;;;;;23.91;46.35;101905.72;4436090;32;20013;-69
2021/10/08 05:59:07;;;;;;;15.35;6.93;;;;;;;23.94;46.28;101904.72;4437914;32;20513;-69
2021/10/08 06:01:32;;;;;;;14.65;6.55;;;;;;;23.96;46.12;101910.00;4437470;32;20378;-69
2021/10/08 06:04:01;;;;;;;11.48;6.82;;;;;;;24.02;46.04;101905.88;4434828;32;20033;-69
2021/10/08 06:06:26;;;;;;;12.48;6.60;;;;;;;23.97;46.30;101905.81;4419872;32;20978;-69
2021/10/08 06:08:52;;;;;;;14.77;7.97;;;;;;;23.98;46.46;101916.81;4436112;32;20030;-69
2021/10/08 06:11:18;;;;;;;15.20;6.78;;;;;;;23.71;46.91;101913.56;4435723;32;20117;-69
2021/10/08 06:13:44;;;;;;;13.82;6.82;;;;;;;23.73;46.96;101911.75;4437839;32;20336;-69
2021/10/08 06:16:10;;;;;;;13.35;6.57;;;;;;;23.91;46.81;101916.44;4435769;32;20097;-69
2021/10/08 06:18:36;;;;;;;14.52;6.82;;;;;;;23.98;46.45;101916.81;4420129;32;20046;-69
2021/10/08 06:21:02;;;;;;;15.00;6.37;;;;;;;23.68;46.71;101921.09;4436529;32;20065;-69
2021/10/08 06:23:28;;;;;;;11.80;6.95;;;;;;;23.68;46.73;101914.56;4435809;32;20103;-69
2021/10/08 06:25:54;;;;;;;11.05;7.00;;;;;;;23.53;47.39;101923.22;4435282;32;20130;-69
2021/10/08 06:28:20;;;;;;;13.15;6.90;;;;;;;23.56;47.33;101927.97;4438754;32;20155;-70
2021/10/08 06:30:46;;;;;;;16.12;7.53;;;;;;;23.67;47.15;101919.50;4436792;32;20051;-69
2021/10/08 06:33:11;;;;;;;11.38;6.18;;;;;;;23.62;46.99;101925.97;4437429;32;20489;-70
2021/10/08 06:35:38;;;;;;;12.85;7.53;;;;;;;23.57;47.37;101929.56;4434834;32;20418;-69
2021/10/08 06:38:05;;;;;;;16.95;7.47;;;;;;;23.77;47.03;101920.19;4430833;32;20344;-69
2021/10/08 06:40:31;;;;;;;14.40;6.78;;;;;;;23.86;46.94;101925.75;4432736;32;20114;-69
2021/10/08 06:42:56;;;;;;;17.25;8.25;;;;;;;23.81;46.79;101926.50;4430183;32;20076;-69
2021/10/08 06:45:25;;;;;;;13.38;6.97;;;;;;;23.91;46.57;101927.94;4430920;32;20972;-69
2021/10/08 06:47:52;;;;;;;11.75;6.70;;;;;;;23.84;46.53;101929.13;4419387;32;20089;-69
2021/10/08 06:50:19;;;;;;;13.75;6.53;;;;;;;24.03;46.36;101930.50;4426725;32;20130;-71
2021/10/08 06:52:44;;;;;;;14.90;7.25;;;;;;;24.21;46.12;101935.91;4428254;32;20482;-72
2021/10/08 06:55:10;;;;;;;14.87;7.68;;;;;;;24.19;46.00;101940.59;4406484;32;20105;-69
2021/10/08 06:57:35;;;;;;;13.85;7.05;;;;;;;24.17;46.16;101946.84;4430259;32;20100;-72
2021/10/08 07:00:04;;;;;;;12.88;7.00;;;;;;;24.18;45.93;101936.16;4427537;32;20085;-69
2021/10/08 07:02:30;;;;;;;12.82;7.45;;;;;;;24.11;46.27;101940.25;4432022;32;20959;-69
2021/10/08 07:04:56;;;;;;;12.82;7.57;;;;;;;24.22;45.91;101942.47;4427258;32;20308;-69
2021/10/08 07:07:21;;;;;;;18.65;7.40;;;;;;;24.32;45.64;101944.69;4427517;32;20429;-69
2021/10/08 07:09:47;;;;;;;11.57;6.60;;;;;;;24.35;45.53;101949.44;4432626;32;20473;-71
2021/10/08 07:12:12;;;;;;;17.90;7.70;;;;;;;24.55;45.02;101954.38;4430472;32;20068;-69
2021/10/08 07:14:38;;;;;;;15.02;8.27;;;;;;;24.60;44.85;101962.25;4429491;32;20093;-69
2021/10/08 07:17:05;;;;;;;13.98;6.68;;;;;;;24.80;44.38;101965.94;4428002;32;20542;-70
2021/10/08 07:19:30;;;;;;;15.88;7.03;;;;;;;24.95;43.87;101966.56;4431524;32;20127;-70
2021/10/08 07:21:56;;;;;;;14.35;7.25;;;;;;;24.80;44.26;101970.88;4430441;32;20069;-70
2021/10/08 07:24:22;;;;;;;12.90;6.28;;;;;;;25.11;43.73;101974.59;4429268;32;20359;-70
2021/10/08 07:26:48;;;;;;;16.58;6.60;;;;;;;24.98;43.67;101971.31;4428327;32;20045;-70
2021/10/08 07:29:14;;;;;;;14.43;6.30;;;;;;;25.22;43.28;101979.66;4429593;32;20105;-70
2021/10/08 07:31:39;;;;;;;13.95;7.12;;;;;;;25.26;43.22;101975.25;4431063;32;20501;-70
2021/10/08 07:34:05;;;;;;;12.68;6.00;;;;;;;25.23;43.27;101975.47;4426735;32;20480;-70
2021/10/08 07:36:31;;;;;;;18.52;7.20;;;;;;;25.55;42.77;101973.41;4428495;32;20041;-69
2021/10/08 07:38:57;;;;;;;12.27;6.40;;;;;;;25.14;43.28;101979.34;4432231;32;20074;-70
2021/10/08 07:41:23;;;;;;;14.65;7.43;;;;;;;25.33;42.71;101986.34;4424726;32;20045;-71
2021/10/08 07:43:50;;;;;;;16.00;6.78;;;;;;;25.42;42.47;101990.31;4426944;32;20476;-71
2021/10/08 07:46:16;;;;;;;16.17;8.88;;;;;;;25.70;41.95;101985.53;4425740;32;20080;-70
2021/10/08 07:48:41;;;;;;;11.10;5.85;;;;;;;25.43;42.15;101989.03;4428513;32;20342;-70
2021/10/08 07:51:07;;;;;;;11.18;5.50;;;;;;;25.45;41.63;101992.19;4428616;32;20742;-70
2021/10/08 07:53:33;;;;;;;13.13;5.80;;;;;;;25.52;42.11;101992.50;4430048;32;20088;-70
2021/10/08 07:56:01;;;;;;;10.38;5.53;;;;;;;25.54;41.93;101992.78;4425738;32;20085;-70
2021/10/08 07:58:27;;;;;;;11.43;5.43;;;;;;;25.55;42.05;101991.47;4428380;32;20367;-70
2021/10/08 08:00:54;;;;;;;9.15;5.00;;;;;;;25.56;42.11;101992.28;4411843;32;20225;-71
2021/10/08 08:03:21;;;;;;;9.60;5.00;;;;;;;26.05;41.34;101995.47;4430863;32;20104;-71
2021/10/08 08:05:48;;;;;;;8.00;5.07;;;;;;;25.97;41.33;101997.25;4427651;32;20112;-71
2021/10/08 08:08:14;;;;;;;18.35;6.05;;;;;;;26.20;40.90;102013.41;4427774;32;20490;-71
2021/10/08 08:10:40;;;;;;;12.37;5.40;;;;;;;26.39;40.31;102014.56;4430461;32;20297;-71
2021/10/08 08:13:05;;;;;;;11.40;5.28;;;;;;;26.47;40.35;102017.72;4427356;32;20138;-71
2021/10/08 08:15:31;;;;;;;7.45;5.00;;;;;;;26.72;39.68;102013.91;4430050;32;20081;-71
2021/10/08 08:17:57;;;;;;;9.93;4.97;;;;;;;26.71;39.57;102015.19;4428374;32;20457;-71
2021/10/08 08:20:22;;;;;;;7.62;4.85;;;;;;;26.76;39.66;102020.22;4428281;32;20169;-71
2021/10/08 08:22:48;;;;;;;8.98;4.93;;;;;;;27.02;38.86;102023.66;4419422;32;20072;-71
2021/10/08 08:25:14;;;;;;;12.05;4.90;;;;;;;26.82;39.30;102027.56;4426414;32;20080;-71
2021/10/08 08:27:42;;;;;;;9.77;5.07;;;;;;;26.78;39.34;102024.16;4426516;32;20176;-70
2021/10/08 08:30:09;;;;;;;8.25;4.28;;;;;;;27.28;38.88;102032.94;4428923;32;20386;-70
2021/10/08 08:32:35;;;;;;;6.90;3.87;;;;;;;26.93;39.00;102021.81;4430750;32;20077;-70
2021/10/08 08:35:03;;;;;;;10.75;4.45;;;;;;;27.13;38.68;102032.38;4431085;32;20116;-71
2021/10/08 08:37:29;;;;;;;7.32;3.78;;;;;;;27.38;38.45;102034.25;4429318;32;20083;-71
2021/10/08 08:39:55;;;;;;;11.95;4.57;;;;;;;27.61;38.00;102032.91;4415287;32;20160;-71
2021/10/08 08:42:21;;;;;;;8.40;4.70;;;;;;;27.68;37.84;102038.19;4425890;32;20188;-71
2021/10/08 08:44:47;;;;;;;10.15;4.80;;;;;;;27.43;38.03;102041.34;4426917;32;20085;-71
2021/10/08 08:47:15;;;;;;;7.87;4.75;;;;;;;27.46;38.19;102051.88;4430346;32;20107;-70
2021/10/08 08:49:41;;;;;;;7.30;4.80;;;;;;;27.09;38.58;102049.19;4424327;32;20171;-71
2021/10/08 08:52:06;;;;;;;9.95;4.78;;;;;;;26.67;39.38;102050.13;4426769;32;21911;-71
2021/10/08 08:54:34;;;;;;;6.25;3.97;;;;;;;26.28;40.31;102054.91;4431032;32;20102;-70
2021/10/08 08:57:08;;;;;;;9.63;4.80;;;;;;;26.28;40.47;102054.09;4428755;32;20080;-71
2021/10/08 09:02:36;;;;;;;8.38;4.55;;;;;;;26.88;40.23;102057.25;3985885;31;15149778;-71
2021/10/08 09:05:04;;;;;;;8.10;4.70;;;;;;;26.88;40.23;102057.25;4442629;32;20076;-72
2021/10/08 09:07:35;;;;;;;9.68;5.50;;;;;;;26.37;40.59;102053.87;4442225;32;20156;-72
2021/10/08 09:10:20;;;;;;;9.95;5.00;;;;;;;26.47;40.63;102058.13;4443675;32;20072;-72
2021/10/08 09:12:47;;;;;;;14.38;5.57;;;;;;;26.52;40.47;102063.16;4444049;32;20073;-72
2021/10/08 09:15:15;;;;;;;11.02;4.70;;;;;;;26.73;40.40;102062.50;4437722;32;20064;-72
2021/10/08 09:17:41;;;;;;;13.13;5.72;;;;;;;26.78;40.07;102066.69;4438404;32;20442;-72
2021/10/08 09:20:11;;;;;;;12.15;6.40;;;;;;;26.63;40.12;102074.78;4443897;32;20414;-71
2021/10/08 09:27:55;;;;;;;10.10;6.87;;;;;;;27.35;39.18;102072.09;3965184;32;15029480;-72
2021/10/08 09:30:26;;;;;;;9.00;6.43;;;;;;;27.35;39.18;102072.09;4421703;32;20069;-72
2021/10/08 09:32:54;;;;;;;12.40;6.93;;;;;;;26.89;39.38;102076.19;4423772;32;20049;-71
2021/10/08 09:35:23;;;;;;;9.88;6.35;;;;;;;27.17;39.38;102079.94;4426509;32;20450;-71
2021/10/08 09:38:02;;;;;;;10.73;6.50;;;;;;;27.10;39.49;102071.78;4424852;32;20537;-71
2021/10/08 09:43:12;;;;;;;9.13;5.80;;;;;;;28.04;38.07;102085.53;3985219;31;15017060;-70
2021/10/08 09:45:55;;;;;;;7.20;5.37;;;;;;;28.04;38.07;102085.53;4431829;32;20514;-70
2021/10/08 09:48:23;;;;;;;7.32;5.32;;;;;;;27.90;37.67;102092.38;4430970;32;20512;-71
2021/10/08 09:56:42;;;;;;;6.43;4.65;;;;;;;28.33;37.11;102090.72;3964409;32;15023823;-71
2021/10/08 10:01:45;;;;;;;8.38;4.65;;;;;;;29.39;35.60;102092.44;3970834;32;15027054;-70
2021/10/08 10:04:11;;;;;;;7.75;4.78;;;;;;;29.43;35.71;102095.19;4414274;32;20078;-71
2021/10/08 10:06:39;;;;;;;11.35;5.43;;;;;;;29.60;34.67;102087.16;4422941;32;20481;-71
2021/10/08 10:09:07;;;;;;;7.87;4.47;;;;;;;29.92;34.48;102097.72;4421171;32;20093;-70
2021/10/08 10:11:34;;;;;;;8.98;4.78;;;;;;;30.42;33.67;102089.28;4425261;32;20539;-70
2021/10/08 10:14:00;;;;;;;6.55;4.55;;;;;;;30.15;34.07;102098.28;4433717;32;20091;-71
2021/10/08 10:16:29;;;;;;;12.30;6.22;;;;;;;29.79;34.44;102099.69;4420695;32;20046;-70
2021/10/08 10:18:58;;;;;;;7.93;4.87;;;;;;;29.48;35.17;102094.37;4415670;32;20494;-71
2021/10/08 10:21:27;;;;;;;8.63;4.97;;;;;;;29.15;35.80;102097.50;4419504;32;20072;-69
2021/10/08 10:23:54;;;;;;;7.43;5.10;;;;;;;29.11;35.86;102103.59;4425342;32;20081;-70
2021/10/08 10:26:21;;;;;;;12.13;5.90;;;;;;;29.20;35.81;102099.59;4425732;32;20105;-70
2021/10/08 10:28:48;;;;;;;12.00;6.03;;;;;;;29.00;35.96;102098.59;4424368;32;20118;-69
2021/10/08 10:31:15;;;;;;;10.18;6.40;;;;;;;29.21;36.01;102110.66;4424305;32;20792;-69
2021/10/08 10:33:42;;;;;;;12.25;7.18;;;;;;;29.14;36.10;102113.34;4422462;32;20037;-69
2021/10/08 10:36:22;;;;;;;13.68;6.87;;;;;;;28.83;36.69;102109.50;4407344;32;20196;-69
2021/10/08 10:38:48;;;;;;;13.93;7.32;;;;;;;28.61;37.01;102095.13;4406941;32;20499;-69
2021/10/08 10:43:55;;;;;;;15.07;8.05;;;;;;;29.40;36.15;102107.87;3931269;32;15023629;-70
2021/10/08 10:57:13;;;;;;;14.20;7.53;;;;;;;29.67;35.77;102106.91;3987733;31;15014966;-71
2021/10/08 10:59:41;;;;;;;12.10;7.55;;;;;;;29.17;36.58;102110.12;4445342;32;20068;-71
2021/10/08 11:04:45;;;;;;;10.90;6.47;;;;;;;29.50;36.73;102098.31;3984348;31;15018176;-70
2021/10/08 11:12:43;;;;;;;9.73;6.18;;;;;;;29.62;35.97;102090.34;3975074;32;15023932;-69
2021/10/08 11:17:57;;;;;;;9.13;5.53;;;;;;;30.66;34.48;102095.06;3975148;32;15022540;-71
2021/10/08 11:23:03;;;;;;;12.40;5.50;;;;;;;31.74;33.08;102097.47;3957438;32;15023313;-69
2021/10/08 11:25:32;;;;;;;12.20;5.40;;;;;;;31.74;33.08;102097.47;4404316;32;20069;-69
2021/10/08 11:27:59;;;;;;;11.18;5.40;;;;;;;31.43;33.04;102095.34;4407107;32;20081;-69
2021/10/08 11:30:27;;;;;;;10.35;5.10;;;;;;;31.55;31.90;102024.78;4405222;32;20078;-69
2021/10/08 11:32:55;;;;;;;9.25;5.75;;;;;;;32.58;31.27;102095.41;4404959;32;21051;-70
2021/10/08 11:35:40;;;;;;;9.27;5.25;;;;;;;32.44;31.35;102094.63;4402494;32;20041;-70
2021/10/08 11:38:06;;;;;;;11.32;6.40;;;;;;;33.28;30.19;102094.37;4403269;32;20457;-70
2021/10/08 11:40:37;;;;;;;11.63;6.43;;;;;;;33.51;29.67;102086.69;4407153;32;20093;-70
2021/10/08 11:43:06;;;;;;;11.07;5.82;;;;;;;34.10;29.22;102093.66;4403434;32;20144;-70
2021/10/08 11:48:14;;;;;;;10.70;6.40;;;;;;;35.31;27.49;102089.28;3948595;32;15730133;-71
2021/10/08 11:50:46;;;;;;;11.30;6.55;;;;;;;35.31;27.49;102089.28;4417562;32;20520;-71
2021/10/08 11:53:12;;;;;;;15.05;6.25;;;;;;;35.01;27.49;102089.19;4418550;32;20095;-71
2021/10/08 11:55:38;;;;;;;13.07;5.95;;;;;;;35.28;27.32;102093.38;4416780;32;20113;-71
2021/10/08 11:58:08;;;;;;;13.65;6.10;;;;;;;35.19;27.42;102085.16;4417675;32;20101;-71
2021/10/08 12:00:37;;;;;;;11.15;5.62;;;;;;;35.56;26.98;102091.13;4418674;32;20071;-71
2021/10/08 12:03:07;;;;;;;8.77;5.50;;;;;;;35.39;27.16;102087.16;4403836;32;20053;-71
2021/10/08 12:05:56;;;;;;;16.67;6.57;;;;;;;34.74;27.98;102079.88;4414682;32;20118;-71